CHB6888 OOMS-ZUCK
Flight info
| Callsign | CHB6888 |
|---|---|
| Flight time | N/A |
| Altitude | 38700 |
| Route | SODEB DCT NODUT M504 TELEM A791 PRA DCT LKN G598 SMR DCT TUMLI B345 NONIM/K0845S1180 B345 LXA W500 DM W9 KDJ V69 MUDEL |
| Aircraft | A20N/M-SDE2E3FGHIRWXY/LB1 |
Departure
| Time | N/A |
|---|---|
| Airport | Muscat International Airport (OOMS) |
Arrival
| Time | 2026-04-25 19:28 |
|---|---|
| Airport | Chongqing Jiangbei International Airport (ZUCK) |
| Time | Latitude | Longitude | Altitude | Speed | Heading |
|---|---|---|---|---|---|
| 2026-04-25 16:58 | 26.78187 | 81.10306 | 38786 ft | 505 kts | 82° |
| 2026-04-25 16:59 | 26.79019 | 81.18061 | 38786 ft | 505 kts | 82° |
| 2026-04-25 16:59 | 26.79864 | 81.25845 | 38786 ft | 505 kts | 82° |
| 2026-04-25 17:00 | 26.80570 | 81.32340 | 38786 ft | 505 kts | 82° |
| 2026-04-25 17:00 | 26.81550 | 81.41395 | 38786 ft | 504 kts | 82° |
| 2026-04-25 17:01 | 26.82389 | 81.49184 | 38786 ft | 504 kts | 82° |
| 2026-04-25 17:01 | 26.83220 | 81.56940 | 38786 ft | 504 kts | 82° |
| 2026-04-25 17:02 | 26.84052 | 81.64749 | 38786 ft | 504 kts | 82° |
| 2026-04-25 17:02 | 26.84876 | 81.72543 | 38786 ft | 505 kts | 83° |
| 2026-04-25 17:03 | 26.85697 | 81.80363 | 38786 ft | 504 kts | 83° |
| 2026-04-25 17:03 | 26.86512 | 81.88136 | 38786 ft | 504 kts | 83° |
| 2026-04-25 17:04 | 26.87325 | 81.95934 | 38786 ft | 504 kts | 83° |
| 2026-04-25 17:04 | 26.88132 | 82.03702 | 38786 ft | 504 kts | 83° |
| 2026-04-25 17:05 | 26.88938 | 82.11517 | 38786 ft | 505 kts | 83° |
| 2026-04-25 17:05 | 26.90136 | 82.23201 | 38786 ft | 506 kts | 83° |
| 2026-04-25 17:06 | 26.90934 | 82.31042 | 38785 ft | 507 kts | 83° |
| 2026-04-25 17:06 | 26.91725 | 82.38861 | 38786 ft | 507 kts | 83° |
| 2026-04-25 17:07 | 26.92514 | 82.46687 | 38785 ft | 508 kts | 83° |
| 2026-04-25 17:07 | 26.93301 | 82.54552 | 38785 ft | 509 kts | 83° |
| 2026-04-25 17:08 | 26.94084 | 82.62421 | 38785 ft | 509 kts | 83° |
| 2026-04-25 17:08 | 26.94865 | 82.70309 | 38785 ft | 510 kts | 83° |
| 2026-04-25 17:09 | 26.95641 | 82.78217 | 38786 ft | 511 kts | 83° |
| 2026-04-25 17:09 | 26.96416 | 82.86116 | 38786 ft | 512 kts | 83° |
| 2026-04-25 17:10 | 26.97193 | 82.94054 | 38786 ft | 512 kts | 84° |
| 2026-04-25 17:10 | 26.97964 | 83.01968 | 38786 ft | 513 kts | 84° |
| 2026-04-25 17:11 | 26.98770 | 83.09905 | 38790 ft | 514 kts | 84° |
| 2026-04-25 17:11 | 26.99585 | 83.17872 | 38825 ft | 514 kts | 84° |
| 2026-04-25 17:12 | 27.00394 | 83.25829 | 38888 ft | 515 kts | 84° |
| 2026-04-25 17:12 | 27.01201 | 83.33818 | 38966 ft | 515 kts | 84° |
| 2026-04-25 17:13 | 27.01738 | 83.39162 | 39010 ft | 516 kts | 84° |
| 2026-04-25 17:13 | 27.02804 | 83.49828 | 39069 ft | 517 kts | 84° |
| 2026-04-25 17:14 | 27.03601 | 83.57851 | 39095 ft | 518 kts | 84° |
| 2026-04-25 17:14 | 27.04394 | 83.65887 | 39104 ft | 518 kts | 85° |
| 2026-04-25 17:15 | 27.05178 | 83.73906 | 39111 ft | 518 kts | 85° |
| 2026-04-25 17:15 | 27.05959 | 83.81935 | 39112 ft | 519 kts | 84° |
| 2026-04-25 17:16 | 27.06741 | 83.89999 | 39113 ft | 518 kts | 84° |
| 2026-04-25 17:16 | 27.07517 | 83.98055 | 39112 ft | 519 kts | 84° |
| 2026-04-25 17:17 | 27.08285 | 84.06077 | 39113 ft | 518 kts | 84° |
| 2026-04-25 17:17 | 27.09052 | 84.14107 | 39113 ft | 518 kts | 84° |
| 2026-04-25 17:18 | 27.09813 | 84.22139 | 39111 ft | 518 kts | 84° |
| 2026-04-25 17:18 | 27.10545 | 84.29736 | 39112 ft | 518 kts | 84° |
| 2026-04-25 17:19 | 27.11321 | 84.37766 | 39113 ft | 519 kts | 84° |
| 2026-04-25 17:19 | 27.12077 | 84.45834 | 39111 ft | 519 kts | 85° |
| 2026-04-25 17:20 | 27.12817 | 84.53852 | 39113 ft | 518 kts | 85° |
| 2026-04-25 17:20 | 27.13551 | 84.61893 | 39114 ft | 519 kts | 84° |
| 2026-04-25 17:21 | 27.14265 | 84.69965 | 39112 ft | 518 kts | 86° |
| 2026-04-25 17:21 | 27.14891 | 84.78057 | 39113 ft | 518 kts | 86° |
| 2026-04-25 17:22 | 27.15301 | 84.83405 | 39112 ft | 518 kts | 86° |
| 2026-04-25 17:22 | 27.16129 | 84.94182 | 39113 ft | 518 kts | 86° |
| 2026-04-25 17:23 | 27.16750 | 85.02248 | 39114 ft | 518 kts | 86° |
| 2026-04-25 17:23 | 27.17367 | 85.10297 | 39113 ft | 517 kts | 86° |
| 2026-04-25 17:24 | 27.17974 | 85.18315 | 39114 ft | 516 kts | 86° |
| 2026-04-25 17:24 | 27.18576 | 85.26337 | 39113 ft | 516 kts | 86° |
| 2026-04-25 17:25 | 27.19171 | 85.34328 | 39114 ft | 516 kts | 86° |
| 2026-04-25 17:25 | 27.19767 | 85.42388 | 39114 ft | 516 kts | 86° |
| 2026-04-25 17:26 | 27.20351 | 85.50369 | 39113 ft | 516 kts | 86° |
| 2026-04-25 17:26 | 27.20937 | 85.58424 | 39114 ft | 516 kts | 86° |
| 2026-04-25 17:27 | 27.21514 | 85.66422 | 39111 ft | 516 kts | 86° |
| 2026-04-25 17:27 | 27.21899 | 85.71819 | 39112 ft | 515 kts | 86° |
| 2026-04-25 17:28 | 27.22655 | 85.82485 | 39113 ft | 516 kts | 86° |
| 2026-04-25 17:28 | 27.23222 | 85.90562 | 39113 ft | 516 kts | 86° |
| 2026-04-25 17:29 | 27.23781 | 85.98563 | 39113 ft | 516 kts | 86° |
| 2026-04-25 17:29 | 27.24338 | 86.06621 | 39113 ft | 516 kts | 86° |
| 2026-04-25 17:30 | 27.24891 | 86.14657 | 39113 ft | 516 kts | 86° |
| 2026-04-25 17:30 | 27.25436 | 86.22680 | 39113 ft | 516 kts | 86° |
| 2026-04-25 17:31 | 27.25976 | 86.30688 | 39114 ft | 516 kts | 86° |
| 2026-04-25 17:31 | 27.26514 | 86.38724 | 39114 ft | 516 kts | 86° |
| 2026-04-25 17:32 | 27.27046 | 86.46737 | 39113 ft | 516 kts | 86° |
| 2026-04-25 17:32 | 27.27574 | 86.54778 | 39113 ft | 515 kts | 86° |
| 2026-04-25 17:33 | 27.28097 | 86.62807 | 39114 ft | 516 kts | 86° |
| 2026-04-25 17:33 | 27.28616 | 86.70854 | 39112 ft | 516 kts | 87° |
| 2026-04-25 17:34 | 27.29127 | 86.78851 | 39113 ft | 516 kts | 87° |
| 2026-04-25 17:34 | 27.29638 | 86.86916 | 39113 ft | 516 kts | 87° |
| 2026-04-25 17:35 | 27.30139 | 86.94913 | 39114 ft | 515 kts | 86° |
| 2026-04-25 17:35 | 27.30637 | 87.02919 | 39114 ft | 512 kts | 86° |
| 2026-04-25 17:36 | 27.31622 | 87.10838 | 39109 ft | 509 kts | 72° |
| 2026-04-25 17:36 | 27.32928 | 87.14518 | 39110 ft | 507 kts | 60° |
| 2026-04-25 17:36 | 27.34775 | 87.17830 | 39110 ft | 503 kts | 50° |
| 2026-04-25 17:37 | 27.37129 | 87.20729 | 39110 ft | 499 kts | 38° |
| 2026-04-25 17:37 | 27.39877 | 87.23093 | 39111 ft | 494 kts | 28° |
| 2026-04-25 17:37 | 27.45986 | 87.26283 | 39114 ft | 488 kts | 17° |
| 2026-04-25 17:38 | 27.50213 | 87.28129 | 39114 ft | 487 kts | 17° |
| 2026-04-25 17:38 | 27.58635 | 87.31899 | 39113 ft | 488 kts | 18° |
| 2026-04-25 17:39 | 27.64886 | 87.34769 | 39113 ft | 488 kts | 18° |
| 2026-04-25 17:39 | 27.71154 | 87.37659 | 39113 ft | 488 kts | 18° |
| 2026-04-25 17:40 | 27.77381 | 87.40739 | 39113 ft | 491 kts | 23° |
| 2026-04-25 17:40 | 27.83279 | 87.44716 | 39114 ft | 495 kts | 31° |
| 2026-04-25 17:41 | 27.88642 | 87.49607 | 39113 ft | 499 kts | 40° |
| 2026-04-25 17:41 | 27.93522 | 87.55235 | 39114 ft | 501 kts | 44° |
| 2026-04-25 17:42 | 27.98278 | 87.60942 | 39113 ft | 501 kts | 43° |
| 2026-04-25 17:42 | 28.03056 | 87.66649 | 39110 ft | 501 kts | 44° |
| 2026-04-25 17:43 | 28.07869 | 87.72407 | 39113 ft | 501 kts | 44° |
| 2026-04-25 17:43 | 28.12631 | 87.78077 | 39113 ft | 501 kts | 44° |
| 2026-04-25 17:44 | 28.17470 | 87.83813 | 39113 ft | 501 kts | 44° |
| 2026-04-25 17:44 | 28.22275 | 87.89535 | 39112 ft | 501 kts | 44° |
| 2026-04-25 17:45 | 28.25457 | 87.93334 | 39113 ft | 501 kts | 44° |
| 2026-04-25 17:45 | 28.31846 | 88.00977 | 39113 ft | 501 kts | 44° |
| 2026-04-25 17:46 | 28.36650 | 88.06734 | 39113 ft | 501 kts | 44° |
| 2026-04-25 17:46 | 28.41420 | 88.12459 | 39113 ft | 501 kts | 44° |
| 2026-04-25 17:47 | 28.46154 | 88.18151 | 39113 ft | 501 kts | 44° |
| 2026-04-25 17:47 | 28.50994 | 88.23979 | 39113 ft | 501 kts | 44° |
| 2026-04-25 17:48 | 28.58158 | 88.32621 | 39113 ft | 501 kts | 44° |
| 2026-04-25 17:49 | 28.62952 | 88.38414 | 39113 ft | 501 kts | 44° |
| 2026-04-25 17:49 | 28.67712 | 88.44173 | 39113 ft | 501 kts | 44° |
| 2026-04-25 17:50 | 28.72484 | 88.49957 | 39113 ft | 501 kts | 44° |
| 2026-04-25 17:50 | 28.77239 | 88.55727 | 39113 ft | 501 kts | 44° |
| 2026-04-25 17:51 | 28.82002 | 88.61516 | 39113 ft | 501 kts | 44° |
| 2026-04-25 17:51 | 28.86761 | 88.67313 | 39111 ft | 501 kts | 44° |
| 2026-04-25 17:52 | 28.91502 | 88.73123 | 39113 ft | 501 kts | 44° |
| 2026-04-25 17:52 | 28.96260 | 88.78944 | 39113 ft | 501 kts | 44° |
| 2026-04-25 17:53 | 29.01041 | 88.84795 | 39106 ft | 504 kts | 44° |
| 2026-04-25 17:53 | 29.05835 | 88.90663 | 39087 ft | 508 kts | 43° |
| 2026-04-25 17:54 | 29.10680 | 88.96600 | 39056 ft | 513 kts | 43° |
| 2026-04-25 17:54 | 29.15588 | 89.02586 | 39028 ft | 517 kts | 43° |
| 2026-04-25 17:55 | 29.20491 | 89.08589 | 39012 ft | 520 kts | 43° |
| 2026-04-25 17:55 | 29.25430 | 89.14671 | 39015 ft | 521 kts | 43° |
| 2026-04-25 17:56 | 29.30208 | 89.20863 | 39019 ft | 524 kts | 51° |
| 2026-04-25 17:56 | 29.33716 | 89.28231 | 39005 ft | 529 kts | 69° |
| 2026-04-25 17:57 | 29.35283 | 89.36444 | 38980 ft | 528 kts | 88° |
| 2026-04-25 17:57 | 29.35180 | 89.44862 | 38964 ft | 527 kts | 95° |
| 2026-04-25 17:58 | 29.34821 | 89.53237 | 38955 ft | 526 kts | 94° |
| 2026-04-25 17:58 | 29.34525 | 89.61582 | 38950 ft | 527 kts | 94° |
| 2026-04-25 17:59 | 29.34264 | 89.70003 | 38949 ft | 526 kts | 94° |
| 2026-04-25 17:59 | 29.34008 | 89.78372 | 38950 ft | 526 kts | 94° |
| 2026-04-25 18:00 | 29.33745 | 89.86785 | 38951 ft | 526 kts | 94° |
| 2026-04-25 18:00 | 29.33478 | 89.95155 | 38948 ft | 526 kts | 94° |
| 2026-04-25 18:01 | 29.33207 | 90.03541 | 38950 ft | 526 kts | 94° |
| 2026-04-25 18:01 | 29.32926 | 90.11890 | 38948 ft | 526 kts | 94° |
| 2026-04-25 18:02 | 29.32645 | 90.20301 | 38950 ft | 526 kts | 94° |
| 2026-04-25 18:02 | 29.32355 | 90.28675 | 38949 ft | 526 kts | 94° |
| 2026-04-25 18:03 | 29.32061 | 90.37019 | 38970 ft | 526 kts | 94° |
| 2026-04-25 18:03 | 29.31760 | 90.45400 | 39043 ft | 527 kts | 94° |
| 2026-04-25 18:04 | 29.31454 | 90.53756 | 39084 ft | 527 kts | 94° |
| 2026-04-25 18:04 | 29.31143 | 90.62151 | 39102 ft | 527 kts | 94° |
| 2026-04-25 18:05 | 29.30828 | 90.70503 | 39107 ft | 526 kts | 95° |
| 2026-04-25 18:05 | 29.30509 | 90.78893 | 39112 ft | 526 kts | 95° |
| 2026-04-25 18:06 | 29.30180 | 90.87283 | 39111 ft | 527 kts | 95° |
| 2026-04-25 18:06 | 29.29845 | 90.95670 | 39112 ft | 527 kts | 95° |
| 2026-04-25 18:07 | 29.29483 | 91.04041 | 39113 ft | 526 kts | 95° |
| 2026-04-25 18:07 | 29.29040 | 91.12412 | 39113 ft | 526 kts | 95° |
| 2026-04-25 18:08 | 29.28589 | 91.20741 | 39112 ft | 525 kts | 95° |
| 2026-04-25 18:08 | 29.28142 | 91.29092 | 39113 ft | 525 kts | 95° |
| 2026-04-25 18:09 | 29.27687 | 91.37497 | 39113 ft | 525 kts | 95° |
| 2026-04-25 18:09 | 29.27232 | 91.45849 | 39112 ft | 525 kts | 95° |
| 2026-04-25 18:10 | 29.26924 | 91.51414 | 39113 ft | 526 kts | 95° |
| 2026-04-25 18:10 | 29.26302 | 91.62564 | 39113 ft | 526 kts | 95° |
| 2026-04-25 18:11 | 29.25832 | 91.70935 | 39114 ft | 525 kts | 96° |
| 2026-04-25 18:11 | 29.25436 | 91.79257 | 39112 ft | 525 kts | 94° |
| 2026-04-25 18:12 | 29.25230 | 91.87634 | 39112 ft | 525 kts | 93° |
| 2026-04-25 18:12 | 29.25035 | 91.95948 | 39113 ft | 525 kts | 93° |
| 2026-04-25 18:13 | 29.24821 | 92.04359 | 39112 ft | 526 kts | 93° |
| 2026-04-25 18:13 | 29.24601 | 92.12733 | 39114 ft | 525 kts | 93° |
| 2026-04-25 18:14 | 29.24267 | 92.25259 | 39113 ft | 525 kts | 94° |
| 2026-04-25 18:14 | 29.24044 | 92.33594 | 39114 ft | 525 kts | 93° |
| 2026-04-25 18:15 | 29.23816 | 92.41991 | 39112 ft | 526 kts | 94° |
| 2026-04-25 18:15 | 29.23725 | 92.50330 | 39111 ft | 527 kts | 88° |
| 2026-04-25 18:16 | 29.24784 | 92.58611 | 39111 ft | 528 kts | 75° |
| 2026-04-25 18:16 | 29.27259 | 92.66516 | 39108 ft | 526 kts | 63° |
| 2026-04-25 18:17 | 29.28968 | 92.70240 | 39114 ft | 525 kts | 58° |
| 2026-04-25 18:17 | 29.32635 | 92.77481 | 39113 ft | 524 kts | 57° |
| 2026-04-25 18:18 | 29.36289 | 92.84719 | 39112 ft | 525 kts | 58° |
| 2026-04-25 18:18 | 29.39873 | 92.91942 | 39087 ft | 524 kts | 58° |
| 2026-04-25 18:19 | 29.43461 | 92.99214 | 39022 ft | 523 kts | 58° |
| 2026-04-25 18:19 | 29.47042 | 93.06500 | 38979 ft | 521 kts | 59° |
| 2026-04-25 18:20 | 29.50583 | 93.13715 | 38962 ft | 521 kts | 59° |
| 2026-04-25 18:20 | 29.54133 | 93.20970 | 38954 ft | 520 kts | 59° |
| 2026-04-25 18:21 | 29.57680 | 93.28228 | 38952 ft | 520 kts | 59° |
| 2026-04-25 18:21 | 29.61190 | 93.35420 | 38950 ft | 520 kts | 59° |
| 2026-04-25 18:22 | 29.64731 | 93.42690 | 38949 ft | 520 kts | 59° |
| 2026-04-25 18:22 | 29.68248 | 93.49921 | 38950 ft | 520 kts | 59° |
| 2026-04-25 18:23 | 29.71783 | 93.57204 | 38950 ft | 520 kts | 59° |
| 2026-04-25 18:23 | 29.75313 | 93.64494 | 38950 ft | 520 kts | 59° |
| 2026-04-25 18:24 | 29.78818 | 93.71762 | 38950 ft | 520 kts | 59° |
| 2026-04-25 18:24 | 29.82348 | 93.79091 | 38951 ft | 521 kts | 59° |
| 2026-04-25 18:25 | 29.85841 | 93.86355 | 38949 ft | 520 kts | 60° |
| 2026-04-25 18:25 | 29.88902 | 93.93927 | 38951 ft | 521 kts | 68° |
| 2026-04-25 18:26 | 29.91137 | 94.01896 | 38949 ft | 522 kts | 76° |
| 2026-04-25 18:26 | 29.92754 | 94.10013 | 38949 ft | 521 kts | 78° |
| 2026-04-25 18:27 | 29.94324 | 94.18185 | 38950 ft | 522 kts | 78° |
| 2026-04-25 18:27 | 29.95921 | 94.26373 | 38952 ft | 522 kts | 77° |
| 2026-04-25 18:28 | 29.97510 | 94.34494 | 38950 ft | 522 kts | 77° |
| 2026-04-25 18:28 | 29.99110 | 94.42673 | 38949 ft | 522 kts | 77° |
| 2026-04-25 18:29 | 30.01496 | 94.54930 | 38948 ft | 522 kts | 77° |
| 2026-04-25 18:30 | 30.03869 | 94.67172 | 38657 ft | 521 kts | 78° |
| 2026-04-25 18:30 | 30.04653 | 94.71245 | 38654 ft | 523 kts | 78° |
| 2026-04-25 18:30 | 30.06229 | 94.79436 | 38651 ft | 523 kts | 78° |
| 2026-04-25 18:31 | 30.07802 | 94.87628 | 38650 ft | 523 kts | 78° |
| 2026-04-25 18:31 | 30.09372 | 94.95820 | 38652 ft | 522 kts | 77° |
| 2026-04-25 18:32 | 30.10938 | 95.03815 | 38650 ft | 520 kts | 76° |
| 2026-04-25 18:32 | 30.12579 | 95.11909 | 38647 ft | 519 kts | 76° |
| 2026-04-25 18:33 | 30.14207 | 95.20033 | 38650 ft | 519 kts | 76° |
| 2026-04-25 18:33 | 30.15813 | 95.28142 | 38648 ft | 519 kts | 76° |
| 2026-04-25 18:34 | 30.17413 | 95.36276 | 38648 ft | 519 kts | 77° |
| 2026-04-25 18:34 | 30.19007 | 95.44404 | 38650 ft | 519 kts | 77° |
| 2026-04-25 18:35 | 30.20599 | 95.52560 | 38651 ft | 519 kts | 76° |
| 2026-04-25 18:35 | 30.22186 | 95.60702 | 38651 ft | 519 kts | 76° |
| 2026-04-25 18:36 | 30.23755 | 95.68784 | 38650 ft | 519 kts | 77° |
| 2026-04-25 18:36 | 30.25327 | 95.76950 | 38650 ft | 519 kts | 77° |
| 2026-04-25 18:37 | 30.26899 | 95.85128 | 38650 ft | 519 kts | 77° |
| 2026-04-25 18:37 | 30.28456 | 95.93240 | 38649 ft | 519 kts | 77° |
| 2026-04-25 18:38 | 30.30027 | 96.01444 | 38649 ft | 519 kts | 77° |
| 2026-04-25 18:38 | 30.31642 | 96.09538 | 38650 ft | 519 kts | 76° |
| 2026-04-25 18:39 | 30.33293 | 96.17722 | 38650 ft | 519 kts | 76° |
| 2026-04-25 18:39 | 30.34923 | 96.25866 | 38650 ft | 519 kts | 76° |
| 2026-04-25 18:40 | 30.36542 | 96.33989 | 38649 ft | 518 kts | 76° |
| 2026-04-25 18:40 | 30.38151 | 96.42120 | 38653 ft | 519 kts | 76° |
| 2026-04-25 18:41 | 30.39760 | 96.50288 | 38650 ft | 519 kts | 76° |
| 2026-04-25 18:41 | 30.41374 | 96.58477 | 38651 ft | 519 kts | 77° |
| 2026-04-25 18:42 | 30.42433 | 96.63877 | 38648 ft | 519 kts | 76° |
| 2026-04-25 18:42 | 30.44564 | 96.74809 | 38651 ft | 519 kts | 77° |
| 2026-04-25 18:43 | 30.46150 | 96.82960 | 38650 ft | 519 kts | 77° |
| 2026-04-25 18:43 | 30.47733 | 96.91111 | 38650 ft | 519 kts | 77° |
| 2026-04-25 18:44 | 30.49311 | 96.99266 | 38650 ft | 519 kts | 77° |
| 2026-04-25 18:44 | 30.50793 | 97.07474 | 38649 ft | 520 kts | 81° |
| 2026-04-25 18:45 | 30.51544 | 97.15820 | 38649 ft | 519 kts | 89° |
| 2026-04-25 18:45 | 30.51400 | 97.24134 | 38649 ft | 517 kts | 97° |
| 2026-04-25 18:46 | 30.50704 | 97.32420 | 38651 ft | 517 kts | 98° |
| 2026-04-25 18:46 | 30.49973 | 97.40760 | 38651 ft | 517 kts | 98° |
| 2026-04-25 18:47 | 30.49273 | 97.49036 | 38650 ft | 516 kts | 98° |
| 2026-04-25 18:47 | 30.48572 | 97.57335 | 38649 ft | 517 kts | 98° |
| 2026-04-25 18:48 | 30.47870 | 97.65616 | 38649 ft | 517 kts | 98° |
| 2026-04-25 18:48 | 30.47165 | 97.73888 | 38648 ft | 517 kts | 98° |
| 2026-04-25 18:49 | 30.46454 | 97.82168 | 38650 ft | 517 kts | 98° |
| 2026-04-25 18:49 | 30.45738 | 97.90442 | 38650 ft | 517 kts | 98° |
| 2026-04-25 18:50 | 30.45010 | 97.98769 | 38652 ft | 517 kts | 98° |
| 2026-04-25 18:50 | 30.44287 | 98.06998 | 38652 ft | 516 kts | 98° |
| 2026-04-25 18:51 | 30.43796 | 98.12545 | 38650 ft | 517 kts | 98° |
| 2026-04-25 18:51 | 30.42838 | 98.23624 | 38649 ft | 517 kts | 97° |
| 2026-04-25 18:52 | 30.42200 | 98.31927 | 38650 ft | 517 kts | 97° |
| 2026-04-25 18:52 | 30.41562 | 98.40227 | 38651 ft | 517 kts | 97° |
| 2026-04-25 18:53 | 30.40914 | 98.48488 | 38650 ft | 517 kts | 97° |
| 2026-04-25 18:53 | 30.40258 | 98.56778 | 38650 ft | 517 kts | 97° |
| 2026-04-25 18:54 | 30.39265 | 98.69192 | 38650 ft | 517 kts | 98° |
| 2026-04-25 18:55 | 30.38597 | 98.77480 | 38650 ft | 517 kts | 98° |
| 2026-04-25 18:55 | 30.37920 | 98.85796 | 38650 ft | 516 kts | 98° |
| 2026-04-25 18:56 | 30.36942 | 98.97681 | 38649 ft | 516 kts | 98° |
| 2026-04-25 18:56 | 30.34160 | 99.30741 | 38625 ft | 516 kts | 98° |
| 2026-04-25 18:57 | 30.31299 | 99.63796 | 38608 ft | 516 kts | 98° |
| 2026-04-25 18:57 | 30.28348 | 99.96880 | 38603 ft | 516 kts | 98° |
| 2026-04-25 18:58 | 30.25793 | 100.29879 | 38607 ft | 517 kts | 97° |
| 2026-04-25 18:58 | 30.21964 | 100.79515 | 38600 ft | 516 kts | 98° |
| 2026-04-25 18:59 | 30.16378 | 101.47245 | 38603 ft | 510 kts | 98° |
| 2026-04-25 19:00 | 30.15191 | 101.61204 | 38597 ft | 509 kts | 98° |
| 2026-04-25 19:01 | 30.14505 | 101.70420 | 38593 ft | 510 kts | 95° |
| 2026-04-25 19:01 | 30.14606 | 101.78600 | 38595 ft | 513 kts | 87° |
| 2026-04-25 19:02 | 30.15635 | 101.90923 | 38596 ft | 513 kts | 85° |
| 2026-04-25 19:03 | 30.16446 | 102.00474 | 38595 ft | 513 kts | 86° |
| 2026-04-25 19:03 | 30.17336 | 102.11330 | 38594 ft | 513 kts | 86° |
| 2026-04-25 19:04 | 30.18329 | 102.23649 | 38642 ft | 513 kts | 86° |
| 2026-04-25 19:05 | 30.19634 | 102.40035 | 38757 ft | 513 kts | 86° |
| 2026-04-25 19:06 | 30.20287 | 102.48236 | 38774 ft | 513 kts | 85° |
| 2026-04-25 19:06 | 30.21315 | 102.60576 | 38783 ft | 513 kts | 85° |
| 2026-04-25 19:07 | 30.22312 | 102.72749 | 38783 ft | 513 kts | 86° |
| 2026-04-25 19:08 | 30.23303 | 102.85066 | 38785 ft | 513 kts | 86° |
| 2026-04-25 19:09 | 30.24428 | 102.98776 | 38784 ft | 513 kts | 85° |
| 2026-04-25 19:10 | 30.26459 | 103.27973 | 38817 ft | 508 kts | 93° |
| 2026-04-25 19:10 | 30.24338 | 103.44009 | 38837 ft | 503 kts | 108° |
| 2026-04-25 19:11 | 30.20319 | 103.59507 | 38838 ft | 502 kts | 109° |
| 2026-04-25 19:11 | 30.16553 | 103.75178 | 38840 ft | 503 kts | 108° |
| 2026-04-25 19:12 | 30.12924 | 103.90815 | 38839 ft | 502 kts | 108° |
| 2026-04-25 19:12 | 30.09245 | 104.06435 | 38842 ft | 503 kts | 108° |
| 2026-04-25 19:13 | 30.05533 | 104.22055 | 38840 ft | 503 kts | 108° |
| 2026-04-25 19:13 | 30.01818 | 104.37618 | 38841 ft | 503 kts | 108° |
| 2026-04-25 19:14 | 29.98061 | 104.53261 | 38845 ft | 503 kts | 108° |
| 2026-04-25 19:14 | 29.94312 | 104.68798 | 38409 ft | 496 kts | 108° |
| 2026-04-25 19:14 | 29.92001 | 104.78391 | 36775 ft | 485 kts | 108° |
| 2026-04-25 19:15 | 29.89067 | 104.90473 | 34448 ft | 472 kts | 109° |
| 2026-04-25 19:15 | 29.88174 | 104.94072 | 33862 ft | 459 kts | 109° |
| 2026-04-25 19:15 | 29.87306 | 104.97560 | 32639 ft | 460 kts | 109° |
| 2026-04-25 19:15 | 29.86418 | 105.01129 | 31249 ft | 462 kts | 109° |
| 2026-04-25 19:16 | 29.85547 | 105.04642 | 29878 ft | 461 kts | 109° |
| 2026-04-25 19:16 | 29.84671 | 105.08179 | 28493 ft | 459 kts | 109° |
| 2026-04-25 19:16 | 29.83801 | 105.11690 | 27107 ft | 455 kts | 108° |
| 2026-04-25 19:16 | 29.82944 | 105.15160 | 25729 ft | 451 kts | 108° |
| 2026-04-25 19:17 | 29.82095 | 105.18607 | 24432 ft | 444 kts | 108° |
| 2026-04-25 19:17 | 29.81248 | 105.22037 | 23874 ft | 456 kts | 108° |
| 2026-04-25 19:17 | 29.78483 | 105.33177 | 23128 ft | 477 kts | 108° |
| 2026-04-25 19:17 | 29.74755 | 105.48161 | 22130 ft | 484 kts | 108° |
| 2026-04-25 19:18 | 29.71047 | 105.63058 | 20897 ft | 475 kts | 108° |
| 2026-04-25 19:18 | 29.67443 | 105.77466 | 18731 ft | 463 kts | 108° |
| 2026-04-25 19:18 | 29.64716 | 105.88317 | 16465 ft | 436 kts | 108° |
| 2026-04-25 19:18 | 29.63912 | 105.91528 | 15355 ft | 407 kts | 107° |
| 2026-04-25 19:19 | 29.63124 | 105.94643 | 14108 ft | 407 kts | 107° |
| 2026-04-25 19:19 | 29.62343 | 105.97716 | 13175 ft | 385 kts | 107° |
| 2026-04-25 19:19 | 29.61624 | 106.00551 | 12538 ft | 372 kts | 107° |
| 2026-04-25 19:19 | 29.61379 | 106.01514 | 12381 ft | 372 kts | 107° |
| 2026-04-25 19:20 | 29.58584 | 106.12497 | 10811 ft | 369 kts | 107° |
| 2026-04-25 19:20 | 29.55708 | 106.23774 | 9912 ft | 365 kts | 107° |
| 2026-04-25 19:20 | 29.52836 | 106.34984 | 8796 ft | 359 kts | 107° |
| 2026-04-25 19:20 | 29.51536 | 106.40043 | 7983 ft | 357 kts | 107° |
| 2026-04-25 19:21 | 29.50836 | 106.42771 | 7450 ft | 353 kts | 106° |
| 2026-04-25 19:21 | 29.49534 | 106.47832 | 6406 ft | 311 kts | 106° |
| 2026-04-25 19:21 | 29.48940 | 106.50137 | 5919 ft | 294 kts | 106° |
| 2026-04-25 19:22 | 29.48372 | 106.52336 | 5452 ft | 280 kts | 106° |
| 2026-04-25 19:22 | 29.47846 | 106.54422 | 5104 ft | 263 kts | 101° |
| 2026-04-25 19:22 | 29.48715 | 106.57977 | 4988 ft | 223 kts | 39° |
| 2026-04-25 19:23 | 29.49952 | 106.58794 | 5053 ft | 189 kts | 17° |
| 2026-04-25 19:23 | 29.52210 | 106.59496 | 5058 ft | 167 kts | 11° |
| 2026-04-25 19:23 | 29.53363 | 106.59834 | 5011 ft | 172 kts | 11° |
| 2026-04-25 19:24 | 29.54523 | 106.60112 | 4784 ft | 171 kts | 8° |
| 2026-04-25 19:24 | 29.55675 | 106.60361 | 4568 ft | 170 kts | 8° |
| 2026-04-25 19:24 | 29.57994 | 106.60862 | 4124 ft | 168 kts | 8° |
| 2026-04-25 19:25 | 29.60267 | 106.61363 | 3686 ft | 166 kts | 11° |
| 2026-04-25 19:25 | 29.61344 | 106.61845 | 3753 ft | 167 kts | 26° |
| 2026-04-25 19:25 | 29.62361 | 106.62546 | 3712 ft | 171 kts | 28° |
| 2026-04-25 19:26 | 29.63370 | 106.63172 | 3538 ft | 157 kts | 23° |
| 2026-04-25 19:26 | 29.64330 | 106.63657 | 3253 ft | 146 kts | 20° |
| 2026-04-25 19:26 | 29.65241 | 106.64058 | 2998 ft | 144 kts | 16° |
| 2026-04-25 19:26 | 29.66276 | 106.64421 | 2886 ft | 160 kts | 14° |
| 2026-04-25 19:27 | 29.67333 | 106.64773 | 2478 ft | 161 kts | 13° |
| 2026-04-25 19:27 | 29.67694 | 106.64887 | 2393 ft | 156 kts | 14° |
| 2026-04-25 19:27 | 29.69371 | 106.65443 | 1854 ft | 142 kts | 15° |
| 2026-04-25 19:27 | 29.70283 | 106.65765 | 1616 ft | 138 kts | 15° |
| 2026-04-25 19:28 | 29.71205 | 106.66069 | 1445 ft | 137 kts | 15° |
| 2026-04-25 19:28 | 29.72118 | 106.66383 | 1374 ft | 124 kts | 17° |
| 2026-04-25 19:28 | 29.72659 | 106.66558 | 1374 ft | 48 kts | 15° |
| 2026-04-25 19:28 | 29.72982 | 106.66613 | 1374 ft | 44 kts | 357° |
| 2026-04-25 19:29 | 29.73130 | 106.66486 | 1374 ft | 20 kts | 287° |
| 2026-04-25 19:29 | 29.73087 | 106.66402 | 1374 ft | 22 kts | 199° |
| 2026-04-25 19:29 | 29.72809 | 106.66303 | 1374 ft | 44 kts | 199° |
| 2026-04-25 19:29 | 29.72525 | 106.66206 | 1374 ft | 41 kts | 197° |
| 2026-04-25 19:30 | 29.72261 | 106.66115 | 1374 ft | 38 kts | 197° |
| 2026-04-25 19:30 | 29.72000 | 106.66024 | 1374 ft | 37 kts | 197° |
| 2026-04-25 19:30 | 29.71903 | 106.65908 | 1374 ft | 14 kts | 225° |
| 2026-04-25 19:30 | 29.71832 | 106.65819 | 1374 ft | 16 kts | 228° |
| 2026-04-25 19:31 | 29.71783 | 106.65756 | 1374 ft | 3 kts | 237° |
| 2026-04-25 19:31 | 29.71776 | 106.65743 | 1374 ft | 0 kts | 237° |